sensor_id;sensor_type;location;lat;lon;timestamp;pressure;altitude;pressure_sealevel;temperature;humidity
47763;BME280;33526;42.690;23.322;2022-08-21T00:01:20;94574.22;;;18.63;100.00
47763;BME280;33526;42.690;23.322;2022-08-21T00:03:46;94577.28;;;18.65;100.00
47763;BME280;33526;42.690;23.322;2022-08-21T00:06:12;94552.38;;;18.64;100.00
47763;BME280;33526;42.690;23.322;2022-08-21T00:08:38;94492.84;;;18.31;100.00
47763;BME280;33526;42.690;23.322;2022-08-21T00:11:05;94571.00;;;18.72;100.00
47763;BME280;33526;42.690;23.322;2022-08-21T00:13:31;94534.91;;;18.60;100.00
47763;BME280;33526;42.690;23.322;2022-08-21T00:15:58;94547.00;;;18.60;100.00
47763;BME280;33526;42.690;23.322;2022-08-21T00:18:24;94522.97;;;18.48;100.00
47763;BME280;33526;42.690;23.322;2022-08-21T00:20:50;94557.47;;;18.65;100.00
47763;BME280;33526;42.690;23.322;2022-08-21T00:23:15;94520.84;;;18.54;100.00
47763;BME280;33526;42.690;23.322;2022-08-21T00:25:42;94554.19;;;18.80;100.00
47763;BME280;33526;42.690;23.322;2022-08-21T00:28:08;94543.41;;;18.79;100.00
47763;BME280;33526;42.690;23.322;2022-08-21T00:30:34;94548.84;;;18.77;100.00
47763;BME280;33526;42.690;23.322;2022-08-21T00:33:00;94538.88;;;18.70;100.00
47763;BME280;33526;42.690;23.322;2022-08-21T00:35:34;94531.00;;;18.63;100.00
47763;BME280;33526;42.690;23.322;2022-08-21T00:38:00;94536.44;;;18.80;100.00
47763;BME280;33526;42.690;23.322;2022-08-21T00:40:33;94540.88;;;18.75;100.00
47763;BME280;33526;42.690;23.322;2022-08-21T00:43:02;94525.19;;;18.55;100.00
47763;BME280;33526;42.690;23.322;2022-08-21T00:45:28;94537.97;;;18.62;100.00
47763;BME280;33526;42.690;23.322;2022-08-21T00:47:53;94546.09;;;18.71;100.00
47763;BME280;33526;42.690;23.322;2022-08-21T00:50:20;94546.94;;;18.66;100.00
47763;BME280;33526;42.690;23.322;2022-08-21T00:52:46;94527.44;;;18.62;100.00
47763;BME280;33526;42.690;23.322;2022-08-21T00:55:13;94556.03;;;18.78;100.00
47763;BME280;33526;42.690;23.322;2022-08-21T00:57:50;94538.06;;;18.75;100.00
47763;BME280;33526;42.690;23.322;2022-08-21T01:00:21;94545.47;;;18.97;100.00
47763;BME280;33526;42.690;23.322;2022-08-21T01:02:47;94525.88;;;18.80;100.00
47763;BME280;33526;42.690;23.322;2022-08-21T01:05:13;94541.44;;;18.93;100.00
47763;BME280;33526;42.690;23.322;2022-08-21T01:07:40;94545.03;;;18.93;100.00
47763;BME280;33526;42.690;23.322;2022-08-21T01:10:06;94541.19;;;18.90;100.00
47763;BME280;33526;42.690;23.322;2022-08-21T01:12:33;94535.91;;;18.81;100.00
47763;BME280;33526;42.690;23.322;2022-08-21T01:15:01;94535.38;;;18.83;100.00
47763;BME280;33526;42.690;23.322;2022-08-21T01:17:27;94538.63;;;18.93;100.00
47763;BME280;33526;42.690;23.322;2022-08-21T01:19:53;94491.28;;;18.68;100.00
47763;BME280;33526;42.690;23.322;2022-08-21T01:22:22;94495.06;;;18.77;100.00
47763;BME280;33526;42.690;23.322;2022-08-21T01:24:47;94524.50;;;18.87;100.00
47763;BME280;33526;42.690;23.322;2022-08-21T01:27:12;94514.28;;;18.84;100.00
47763;BME280;33526;42.690;23.322;2022-08-21T01:30:01;94532.78;;;18.85;100.00
47763;BME280;33526;42.690;23.322;2022-08-21T01:32:27;94527.44;;;18.81;100.00
47763;BME280;33526;42.690;23.322;2022-08-21T01:34:53;94486.47;;;18.63;100.00
47763;BME280;33526;42.690;23.322;2022-08-21T01:37:20;94519.78;;;18.95;100.00
47763;BME280;33526;42.690;23.322;2022-08-21T01:39:47;94524.50;;;18.87;100.00
47763;BME280;33526;42.690;23.322;2022-08-21T01:42:13;94536.53;;;18.93;100.00
47763;BME280;33526;42.690;23.322;2022-08-21T01:44:39;94523.88;;;18.94;100.00
47763;BME280;33526;42.690;23.322;2022-08-21T01:47:07;94537.50;;;18.96;100.00
47763;BME280;33526;42.690;23.322;2022-08-21T01:49:34;94507.13;;;18.77;100.00
47763;BME280;33526;42.690;23.322;2022-08-21T01:52:00;94506.81;;;18.81;100.00
47763;BME280;33526;42.690;23.322;2022-08-21T01:54:26;94531.53;;;18.99;100.00
47763;BME280;33526;42.690;23.322;2022-08-21T01:56:52;94527.28;;;18.93;100.00
47763;BME280;33526;42.690;23.322;2022-08-21T01:59:19;94504.16;;;18.69;100.00
47763;BME280;33526;42.690;23.322;2022-08-21T02:01:45;94502.16;;;18.64;100.00
47763;BME280;33526;42.690;23.322;2022-08-21T02:04:10;94512.44;;;18.67;100.00
47763;BME280;33526;42.690;23.322;2022-08-21T02:06:37;94514.56;;;18.61;100.00
47763;BME280;33526;42.690;23.322;2022-08-21T02:09:04;94525.41;;;18.76;100.00
47763;BME280;33526;42.690;23.322;2022-08-21T02:11:31;94508.53;;;18.51;100.00
47763;BME280;33526;42.690;23.322;2022-08-21T02:13:57;94523.28;;;18.63;100.00
47763;BME280;33526;42.690;23.322;2022-08-21T02:16:23;94542.59;;;18.84;100.00
47763;BME280;33526;42.690;23.322;2022-08-21T02:18:48;94498.81;;;18.47;100.00
47763;BME280;33526;42.690;23.322;2022-08-21T02:21:14;94531.75;;;18.63;100.00
47763;BME280;33526;42.690;23.322;2022-08-21T02:23:39;94504.22;;;18.45;100.00
47763;BME280;33526;42.690;23.322;2022-08-21T02:26:07;94542.19;;;18.55;100.00
47763;BME280;33526;42.690;23.322;2022-08-21T02:28:33;94544.88;;;18.66;100.00
47763;BME280;33526;42.690;23.322;2022-08-21T02:30:59;94514.72;;;18.50;100.00
47763;BME280;33526;42.690;23.322;2022-08-21T02:33:25;94547.38;;;18.70;100.00
47763;BME280;33526;42.690;23.322;2022-08-21T02:35:51;94558.50;;;18.87;100.00
47763;BME280;33526;42.690;23.322;2022-08-21T02:38:24;94523.13;;;18.75;100.00
47763;BME280;33526;42.690;23.322;2022-08-21T02:40:51;94551.91;;;18.98;100.00
47763;BME280;33526;42.690;23.322;2022-08-21T02:43:18;94557.25;;;19.01;100.00
47763;BME280;33526;42.690;23.322;2022-08-21T02:45:45;94536.00;;;18.95;100.00
47763;BME280;33526;42.690;23.322;2022-08-21T02:48:13;94516.38;;;18.78;100.00
47763;BME280;33526;42.690;23.322;2022-08-21T02:50:43;94527.72;;;18.78;100.00
47763;BME280;33526;42.690;23.322;2022-08-21T02:53:10;94558.97;;;18.91;100.00
47763;BME280;33526;42.690;23.322;2022-08-21T02:55:37;94547.94;;;18.87;100.00
47763;BME280;33526;42.690;23.322;2022-08-21T02:58:05;94533.91;;;18.76;100.00
47763;BME280;33526;42.690;23.322;2022-08-21T03:00:32;94540.22;;;18.88;100.00
47763;BME280;33526;42.690;23.322;2022-08-21T03:02:57;94518.16;;;18.62;100.00
47763;BME280;33526;42.690;23.322;2022-08-21T03:05:24;94537.69;;;18.84;100.00
47763;BME280;33526;42.690;23.322;2022-08-21T03:07:50;94536.44;;;18.80;100.00
47763;BME280;33526;42.690;23.322;2022-08-21T03:10:18;94564.84;;;18.93;100.00
47763;BME280;33526;42.690;23.322;2022-08-21T03:12:45;94547.47;;;18.83;100.00
47763;BME280;33526;42.690;23.322;2022-08-21T03:15:12;94556.38;;;18.93;100.00
47763;BME280;33526;42.690;23.322;2022-08-21T03:17:38;94555.91;;;18.89;100.00
47763;BME280;33526;42.690;23.322;2022-08-21T03:20:06;94526.28;;;18.71;100.00
47763;BME280;33526;42.690;23.322;2022-08-21T03:22:32;94529.34;;;18.73;100.00
47763;BME280;33526;42.690;23.322;2022-08-21T03:24:57;94531.38;;;18.72;100.00
47763;BME280;33526;42.690;23.322;2022-08-21T03:27:24;94550.75;;;18.68;100.00
47763;BME280;33526;42.690;23.322;2022-08-21T03:29:49;94551.44;;;18.75;100.00
47763;BME280;33526;42.690;23.322;2022-08-21T03:32:15;94543.78;;;18.69;100.00
47763;BME280;33526;42.690;23.322;2022-08-21T03:34:40;94548.66;;;18.69;100.00
47763;BME280;33526;42.690;23.322;2022-08-21T03:37:06;94532.31;;;18.43;100.00
47763;BME280;33526;42.690;23.322;2022-08-21T03:39:32;94544.22;;;18.36;100.00
47763;BME280;33526;42.690;23.322;2022-08-21T03:41:58;94507.50;;;18.11;100.00
47763;BME280;33526;42.690;23.322;2022-08-21T03:44:25;94526.47;;;18.16;100.00
47763;BME280;33526;42.690;23.322;2022-08-21T03:46:55;94543.66;;;18.18;100.00
47763;BME280;33526;42.690;23.322;2022-08-21T03:49:22;94536.72;;;17.94;100.00
47763;BME280;33526;42.690;23.322;2022-08-21T03:51:47;94511.16;;;17.81;100.00
47763;BME280;33526;42.690;23.322;2022-08-21T03:54:13;94552.06;;;18.05;100.00
47763;BME280;33526;42.690;23.322;2022-08-21T03:56:38;94563.13;;;18.03;100.00
47763;BME280;33526;42.690;23.322;2022-08-21T03:59:05;94571.03;;;18.10;100.00
47763;BME280;33526;42.690;23.322;2022-08-21T04:01:31;94576.16;;;18.11;100.00
47763;BME280;33526;42.690;23.322;2022-08-21T04:03:57;94559.72;;;18.10;100.00
47763;BME280;33526;42.690;23.322;2022-08-21T04:06:22;94581.25;;;18.13;100.00
47763;BME280;33526;42.690;23.322;2022-08-21T04:08:48;94569.72;;;18.11;100.00
47763;BME280;33526;42.690;23.322;2022-08-21T04:11:14;94538.13;;;17.82;100.00
47763;BME280;33526;42.690;23.322;2022-08-21T04:13:40;94574.91;;;18.07;100.00
47763;BME280;33526;42.690;23.322;2022-08-21T04:16:06;94565.44;;;18.04;100.00
47763;BME280;33526;42.690;23.322;2022-08-21T04:18:32;94558.53;;;18.00;100.00
47763;BME280;33526;42.690;23.322;2022-08-21T04:20:58;94564.06;;;18.11;100.00
47763;BME280;33526;42.690;23.322;2022-08-21T04:23:25;94563.75;;;18.14;100.00
47763;BME280;33526;42.690;23.322;2022-08-21T04:25:52;94539.72;;;18.02;100.00
47763;BME280;33526;42.690;23.322;2022-08-21T04:28:18;94564.88;;;18.30;100.00
47763;BME280;33526;42.690;23.322;2022-08-21T04:30:43;94571.47;;;18.39;100.00
47763;BME280;33526;42.690;23.322;2022-08-21T04:33:09;94567.03;;;18.43;100.00
47763;BME280;33526;42.690;23.322;2022-08-21T04:35:35;94567.31;;;18.40;100.00
47763;BME280;33526;42.690;23.322;2022-08-21T04:38:00;94533.66;;;18.17;100.00
47763;BME280;33526;42.690;23.322;2022-08-21T04:40:27;94571.78;;;18.54;100.00
47763;BME280;33526;42.690;23.322;2022-08-21T04:42:55;94543.25;;;18.52;100.00
47763;BME280;33526;42.690;23.322;2022-08-21T04:45:25;94564.28;;;18.76;100.00
47763;BME280;33526;42.690;23.322;2022-08-21T04:47:52;94565.25;;;18.84;100.00
47763;BME280;33526;42.690;23.322;2022-08-21T04:50:20;94565.69;;;18.88;100.00
47763;BME280;33526;42.690;23.322;2022-08-21T04:52:47;94541.34;;;18.79;100.00
47763;BME280;33526;42.690;23.322;2022-08-21T04:55:12;94571.94;;;19.19;100.00
47763;BME280;33526;42.690;23.322;2022-08-21T04:57:39;94526.34;;;19.03;97.36
47763;BME280;33526;42.690;23.322;2022-08-21T05:00:06;94569.00;;;19.43;96.94
47763;BME280;33526;42.690;23.322;2022-08-21T05:02:32;94536.50;;;19.44;97.19
47763;BME280;33526;42.690;23.322;2022-08-21T05:04:58;94558.66;;;19.92;95.45
47763;BME280;33526;42.690;23.322;2022-08-21T05:07:26;94503.44;;;19.93;92.01
47763;BME280;33526;42.690;23.322;2022-08-21T05:09:54;94554.06;;;20.55;89.24
47763;BME280;33526;42.690;23.322;2022-08-21T05:12:19;94539.09;;;20.68;87.62
47763;BME280;33526;42.690;23.322;2022-08-21T05:14:45;94532.16;;;20.90;85.14
47763;BME280;33526;42.690;23.322;2022-08-21T05:17:12;94530.81;;;21.05;83.16
47763;BME280;33526;42.690;23.322;2022-08-21T05:19:38;94572.25;;;21.34;82.50
47763;BME280;33526;42.690;23.322;2022-08-21T05:22:03;94563.38;;;21.04;84.50
47763;BME280;33526;42.690;23.322;2022-08-21T05:24:28;94516.28;;;20.60;83.57
47763;BME280;33526;42.690;23.322;2022-08-21T05:26:54;94564.84;;;21.52;82.04
47763;BME280;33526;42.690;23.322;2022-08-21T05:29:20;94568.72;;;21.42;81.32
47763;BME280;33526;42.690;23.322;2022-08-21T05:31:47;94553.72;;;21.20;81.27
47763;BME280;33526;42.690;23.322;2022-08-21T05:34:17;94569.06;;;21.04;82.40
47763;BME280;33526;42.690;23.322;2022-08-21T05:36:42;94543.97;;;20.94;83.17
47763;BME280;33526;42.690;23.322;2022-08-21T05:39:08;94562.25;;;21.07;83.93
47763;BME280;33526;42.690;23.322;2022-08-21T05:41:33;94526.06;;;20.86;82.65
47763;BME280;33526;42.690;23.322;2022-08-21T05:43:59;94557.91;;;21.06;82.56
47763;BME280;33526;42.690;23.322;2022-08-21T05:46:24;94510.47;;;21.56;81.06
47763;BME280;33526;42.690;23.322;2022-08-21T05:48:50;94536.81;;;22.27;77.12
47763;BME280;33526;42.690;23.322;2022-08-21T05:51:16;94545.22;;;22.33;76.17
47763;BME280;33526;42.690;23.322;2022-08-21T05:53:43;94537.03;;;22.08;77.25
47763;BME280;33526;42.690;23.322;2022-08-21T05:56:09;94548.44;;;22.08;77.18
47763;BME280;33526;42.690;23.322;2022-08-21T05:58:35;94515.53;;;21.71;77.70
47763;BME280;33526;42.690;23.322;2022-08-21T06:01:02;94538.31;;;21.36;79.80
47763;BME280;33526;42.690;23.322;2022-08-21T06:03:30;94521.91;;;21.22;80.72
47763;BME280;33526;42.690;23.322;2022-08-21T06:05:57;94529.69;;;21.08;81.73
47763;BME280;33526;42.690;23.322;2022-08-21T06:08:23;94540.78;;;20.98;83.08
47763;BME280;33526;42.690;23.322;2022-08-21T06:10:49;94533.31;;;20.74;83.89
47763;BME280;33526;42.690;23.322;2022-08-21T06:13:17;94529.78;;;20.81;85.39
47763;BME280;33526;42.690;23.322;2022-08-21T06:15:43;94496.38;;;20.74;84.53
47763;BME280;33526;42.690;23.322;2022-08-21T06:18:09;94539.16;;;21.24;82.71
47763;BME280;33526;42.690;23.322;2022-08-21T06:20:35;94539.88;;;21.37;81.21
47763;BME280;33526;42.690;23.322;2022-08-21T06:23:01;94522.81;;;21.37;81.00
47763;BME280;33526;42.690;23.322;2022-08-21T06:25:28;94541.59;;;21.41;81.13
47763;BME280;33526;42.690;23.322;2022-08-21T06:28:03;94527.91;;;21.18;81.37
47763;BME280;33526;42.690;23.322;2022-08-21T06:30:29;94521.31;;;21.02;82.43
47763;BME280;33526;42.690;23.322;2022-08-21T06:32:54;94543.41;;;21.30;81.82
47763;BME280;33526;42.690;23.322;2022-08-21T06:35:20;94487.16;;;20.94;82.20
47763;BME280;33526;42.690;23.322;2022-08-21T06:37:46;94518.91;;;21.27;80.97
47763;BME280;33526;42.690;23.322;2022-08-21T06:40:11;94543.59;;;21.32;80.91
47763;BME280;33526;42.690;23.322;2022-08-21T06:42:37;94532.44;;;21.34;80.64
47763;BME280;33526;42.690;23.322;2022-08-21T06:45:03;94529.59;;;21.34;80.33
47763;BME280;33526;42.690;23.322;2022-08-21T06:47:29;94551.47;;;21.61;80.37
47763;BME280;33526;42.690;23.322;2022-08-21T06:49:54;94546.25;;;21.72;79.99
47763;BME280;33526;42.690;23.322;2022-08-21T06:52:19;94540.41;;;21.78;79.76
47763;BME280;33526;42.690;23.322;2022-08-21T06:54:45;94476.63;;;21.45;79.62
47763;BME280;33526;42.690;23.322;2022-08-21T06:57:10;94551.03;;;21.99;78.16
47763;BME280;33526;42.690;23.322;2022-08-21T06:59:36;94548.09;;;21.91;77.28
47763;BME280;33526;42.690;23.322;2022-08-21T07:02:01;94557.78;;;22.17;76.93
47763;BME280;33526;42.690;23.322;2022-08-21T07:04:27;94534.72;;;21.99;76.78
47763;BME280;33526;42.690;23.322;2022-08-21T07:06:52;94565.81;;;22.26;74.67
47763;BME280;33526;42.690;23.322;2022-08-21T07:09:18;94552.50;;;22.21;73.27
47763;BME280;33526;42.690;23.322;2022-08-21T07:11:46;94546.34;;;22.09;74.70
47763;BME280;33526;42.690;23.322;2022-08-21T07:14:14;94530.84;;;21.89;73.95
47763;BME280;33526;42.690;23.322;2022-08-21T07:16:40;94519.56;;;22.04;75.47
47763;BME280;33526;42.690;23.322;2022-08-21T07:19:05;94550.63;;;22.52;75.32
47763;BME280;33526;42.690;23.322;2022-08-21T07:21:31;94545.72;;;22.60;74.73
47763;BME280;33526;42.690;23.322;2022-08-21T07:23:56;94537.34;;;22.55;74.33
47763;BME280;33526;42.690;23.322;2022-08-21T07:26:23;94554.38;;;22.83;72.85
47763;BME280;33526;42.690;23.322;2022-08-21T07:28:49;94539.31;;;22.67;73.38
47763;BME280;33526;42.690;23.322;2022-08-21T07:31:19;94539.53;;;22.77;73.14
47763;BME280;33526;42.690;23.322;2022-08-21T07:33:44;94506.13;;;22.41;72.41
47763;BME280;33526;42.690;23.322;2022-08-21T07:36:11;94546.03;;;22.85;73.38
47763;BME280;33526;42.690;23.322;2022-08-21T07:38:37;94519.19;;;22.73;72.57
47763;BME280;33526;42.690;23.322;2022-08-21T07:41:13;94531.53;;;22.76;72.95
47763;BME280;33526;42.690;23.322;2022-08-21T07:43:40;94484.06;;;22.34;73.79
47763;BME280;33526;42.690;23.322;2022-08-21T07:46:06;94482.63;;;22.48;72.45
47763;BME280;33526;42.690;23.322;2022-08-21T07:48:31;94472.56;;;22.47;72.63
47763;BME280;33526;42.690;23.322;2022-08-21T07:51:07;94496.81;;;22.85;72.68
47763;BME280;33526;42.690;23.322;2022-08-21T07:53:33;94476.00;;;22.53;71.25
47763;BME280;33526;42.690;23.322;2022-08-21T07:55:59;94521.88;;;22.86;72.37
47763;BME280;33526;42.690;23.322;2022-08-21T07:58:24;94464.66;;;22.25;73.27
47763;BME280;33526;42.690;23.322;2022-08-21T08:00:50;94532.50;;;22.78;72.69
47763;BME280;33526;42.690;23.322;2022-08-21T08:03:15;94451.66;;;22.08;71.63
47763;BME280;33526;42.690;23.322;2022-08-21T08:05:41;94476.19;;;22.56;72.06
47763;BME280;33526;42.690;23.322;2022-08-21T08:08:06;94520.84;;;23.05;70.78
47763;BME280;33526;42.690;23.322;2022-08-21T08:10:32;94511.31;;;23.02;69.92
47763;BME280;33526;42.690;23.322;2022-08-21T08:12:57;94531.78;;;22.85;70.74
47763;BME280;33526;42.690;23.322;2022-08-21T08:15:25;94488.72;;;22.52;70.47
47763;BME280;33526;42.690;23.322;2022-08-21T08:17:50;94529.88;;;22.88;71.34
47763;BME280;33526;42.690;23.322;2022-08-21T08:20:17;94492.09;;;22.43;71.87
47763;BME280;33526;42.690;23.322;2022-08-21T08:22:43;94528.69;;;22.76;70.85
47763;BME280;33526;42.690;23.322;2022-08-21T08:25:10;94473.53;;;22.50;71.74
47763;BME280;33526;42.690;23.322;2022-08-21T08:27:36;94523.00;;;22.76;70.37
47763;BME280;33526;42.690;23.322;2022-08-21T08:30:04;94440.09;;;22.50;69.68
47763;BME280;33526;42.690;23.322;2022-08-21T08:32:30;94512.13;;;23.18;69.99
47763;BME280;33526;42.690;23.322;2022-08-21T08:34:55;94475.25;;;23.05;69.29
47763;BME280;33526;42.690;23.322;2022-08-21T08:37:21;94496.97;;;23.54;67.24
47763;BME280;33526;42.690;23.322;2022-08-21T08:39:47;94477.75;;;23.32;67.07
47763;BME280;33526;42.690;23.322;2022-08-21T08:42:16;94511.22;;;23.62;66.35
47763;BME280;33526;42.690;23.322;2022-08-21T08:44:44;94531.97;;;23.62;67.20
47763;BME280;33526;42.690;23.322;2022-08-21T08:47:13;94522.44;;;23.67;65.50
47763;BME280;33526;42.690;23.322;2022-08-21T08:49:49;94536.16;;;23.77;65.23
47763;BME280;33526;42.690;23.322;2022-08-21T08:52:28;94479.47;;;23.73;65.75
47763;BME280;33526;42.690;23.322;2022-08-21T08:55:15;94442.94;;;24.02;62.27
47763;BME280;33526;42.690;23.322;2022-08-21T08:57:46;94472.91;;;24.42;62.35
47763;BME280;33526;42.690;23.322;2022-08-21T09:00:14;94436.78;;;24.29;62.35
47763;BME280;33526;42.690;23.322;2022-08-21T09:02:45;94491.22;;;24.87;61.44
47763;BME280;33526;42.690;23.322;2022-08-21T09:05:25;94510.50;;;25.19;61.23
47763;BME280;33526;42.690;23.322;2022-08-21T09:08:16;94503.72;;;25.40;60.04
47763;BME280;33526;42.690;23.322;2022-08-21T09:16:17;94482.69;;;25.70;56.75
47763;BME280;33526;42.690;23.322;2022-08-21T09:19:46;94486.91;;;25.44;57.95
47763;BME280;33526;42.690;23.322;2022-08-21T09:27:39;94479.34;;;25.31;58.14
47763;BME280;33526;42.690;23.322;2022-08-21T09:30:06;94437.41;;;25.34;58.43
47763;BME280;33526;42.690;23.322;2022-08-21T09:32:34;94430.91;;;25.33;57.20
47763;BME280;33526;42.690;23.322;2022-08-21T09:35:11;94472.16;;;25.55;56.46
47763;BME280;33526;42.690;23.322;2022-08-21T09:43:04;94472.91;;;25.56;56.86
47763;BME280;33526;42.690;23.322;2022-08-21T09:45:31;94468.81;;;25.67;58.02
47763;BME280;33526;42.690;23.322;2022-08-21T09:48:12;94420.81;;;25.32;56.45
47763;BME280;33526;42.690;23.322;2022-08-21T09:50:39;94423.53;;;25.48;56.82
47763;BME280;33526;42.690;23.322;2022-08-21T09:53:13;94434.38;;;25.32;57.42
47763;BME280;33526;42.690;23.322;2022-08-21T09:55:53;94423.81;;;25.09;57.99
47763;BME280;33526;42.690;23.322;2022-08-21T09:58:40;94465.19;;;25.66;58.05
47763;BME280;33526;42.690;23.322;2022-08-21T10:01:11;94460.22;;;25.67;57.64
47763;BME280;33526;42.690;23.322;2022-08-21T10:03:37;94445.09;;;25.49;58.48
47763;BME280;33526;42.690;23.322;2022-08-21T10:06:06;94377.31;;;25.09;58.26
47763;BME280;33526;42.690;23.322;2022-08-21T10:08:35;94446.91;;;25.62;57.71
47763;BME280;33526;42.690;23.322;2022-08-21T10:11:07;94438.97;;;25.52;59.01
47763;BME280;33526;42.690;23.322;2022-08-21T10:16:22;94452.63;;;25.36;59.17
47763;BME280;33526;42.690;23.322;2022-08-21T10:21:37;94398.25;;;25.11;58.73
47763;BME280;33526;42.690;23.322;2022-08-21T10:27:18;94369.31;;;25.07;59.04
47763;BME280;33526;42.690;23.322;2022-08-21T10:29:55;94404.50;;;25.17;59.48
47763;BME280;33526;42.690;23.322;2022-08-21T10:40:53;94427.03;;;26.41;56.07
47763;BME280;33526;42.690;23.322;2022-08-21T10:48:39;94366.31;;;26.08;57.19
47763;BME280;33526;42.690;23.322;2022-08-21T10:51:28;94384.34;;;26.18;56.19
47763;BME280;33526;42.690;23.322;2022-08-21T10:54:17;94341.44;;;26.28;54.93
47763;BME280;33526;42.690;23.322;2022-08-21T10:56:47;94392.63;;;25.97;56.31
47763;BME280;33526;42.690;23.322;2022-08-21T11:04:23;94356.31;;;25.56;57.29
47763;BME280;33526;42.690;23.322;2022-08-21T11:07:03;94342.38;;;25.61;56.57
47763;BME280;33526;42.690;23.322;2022-08-21T11:09:31;94335.00;;;25.32;57.72
47763;BME280;33526;42.690;23.322;2022-08-21T11:12:26;94328.72;;;25.34;57.81
47763;BME280;33526;42.690;23.322;2022-08-21T11:15:06;94336.97;;;25.47;58.08
47763;BME280;33526;42.690;23.322;2022-08-21T11:17:54;94331.66;;;25.44;57.62
47763;BME280;33526;42.690;23.322;2022-08-21T11:20:29;94368.66;;;25.84;57.86
47763;BME280;33526;42.690;23.322;2022-08-21T11:23:14;94347.75;;;25.56;58.58
47763;BME280;33526;42.690;23.322;2022-08-21T11:25:45;94360.25;;;25.86;57.31
47763;BME280;33526;42.690;23.322;2022-08-21T11:28:26;94382.72;;;25.90;56.57
47763;BME280;33526;42.690;23.322;2022-08-21T11:36:36;94300.38;;;25.21;56.58
47763;BME280;33526;42.690;23.322;2022-08-21T11:44:51;94363.97;;;25.97;55.40
47763;BME280;33526;42.690;23.322;2022-08-21T11:47:40;94339.44;;;25.68;55.66
47763;BME280;33526;42.690;23.322;2022-08-21T11:50:23;94370.69;;;25.91;54.35
47763;BME280;33526;42.690;23.322;2022-08-21T11:53:01;94323.84;;;25.62;55.68
47763;BME280;33526;42.690;23.322;2022-08-21T11:55:33;94303.25;;;25.63;56.09
47763;BME280;33526;42.690;23.322;2022-08-21T11:58:10;94318.63;;;25.85;55.18
47763;BME280;33526;42.690;23.322;2022-08-21T12:00:49;94357.97;;;26.20;55.59
47763;BME280;33526;42.690;23.322;2022-08-21T12:03:26;94320.50;;;25.90;55.67
47763;BME280;33526;42.690;23.322;2022-08-21T12:06:05;94312.78;;;26.01;54.83
47763;BME280;33526;42.690;23.322;2022-08-21T12:08:40;94294.22;;;25.67;54.21
47763;BME280;33526;42.690;23.322;2022-08-21T12:13:59;94323.50;;;26.27;54.51
47763;BME280;33526;42.690;23.322;2022-08-21T12:16:35;94340.81;;;26.47;54.07
47763;BME280;33526;42.690;23.322;2022-08-21T12:19:28;94286.00;;;26.33;52.98
47763;BME280;33526;42.690;23.322;2022-08-21T12:24:37;94289.72;;;26.53;51.78
47763;BME280;33526;42.690;23.322;2022-08-21T12:30:18;94298.31;;;26.70;51.54
47763;BME280;33526;42.690;23.322;2022-08-21T12:32:54;94356.53;;;27.00;50.70
47763;BME280;33526;42.690;23.322;2022-08-21T12:35:25;94312.66;;;26.53;51.54
47763;BME280;33526;42.690;23.322;2022-08-21T12:38:47;94352.69;;;26.88;52.52
47763;BME280;33526;42.690;23.322;2022-08-21T12:43:41;94348.72;;;26.56;51.98
47763;BME280;33526;42.690;23.322;2022-08-21T12:46:17;94337.69;;;26.52;51.25
47763;BME280;33526;42.690;23.322;2022-08-21T12:48:57;94342.22;;;26.56;51.54
47763;BME280;33526;42.690;23.322;2022-08-21T12:51:30;94340.81;;;26.64;51.76
47763;BME280;33526;42.690;23.322;2022-08-21T12:53:59;94315.22;;;26.49;52.14
47763;BME280;33526;42.690;23.322;2022-08-21T12:56:28;94301.34;;;26.28;52.01
47763;BME280;33526;42.690;23.322;2022-08-21T12:58:56;94294.38;;;26.21;52.08
47763;BME280;33526;42.690;23.322;2022-08-21T13:01:37;94313.88;;;26.32;53.58
47763;BME280;33526;42.690;23.322;2022-08-21T13:04:09;94343.19;;;26.41;53.63
47763;BME280;33526;42.690;23.322;2022-08-21T13:06:57;94251.97;;;25.75;53.42
47763;BME280;33526;42.690;23.322;2022-08-21T13:09:28;94271.66;;;25.88;52.34
47763;BME280;33526;42.690;23.322;2022-08-21T13:11:55;94309.88;;;26.18;52.66
47763;BME280;33526;42.690;23.322;2022-08-21T13:14:34;94260.06;;;25.69;53.24
47763;BME280;33526;42.690;23.322;2022-08-21T13:17:04;94292.03;;;25.92;52.66
47763;BME280;33526;42.690;23.322;2022-08-21T13:19:30;94323.38;;;26.08;53.59
47763;BME280;33526;42.690;23.322;2022-08-21T13:21:57;94288.00;;;25.96;53.55
47763;BME280;33526;42.690;23.322;2022-08-21T13:26:51;94326.91;;;25.81;54.93
47763;BME280;33526;42.690;23.322;2022-08-21T13:29:19;94293.03;;;25.87;55.16
47763;BME280;33526;42.690;23.322;2022-08-21T13:31:49;94259.63;;;25.72;55.06
47763;BME280;33526;42.690;23.322;2022-08-21T13:34:19;94259.22;;;25.59;55.28
47763;BME280;33526;42.690;23.322;2022-08-21T13:36:46;94289.59;;;25.89;55.53
47763;BME280;33526;42.690;23.322;2022-08-21T13:39:16;94223.69;;;25.79;55.72
47763;BME280;33526;42.690;23.322;2022-08-21T13:41:44;94230.47;;;25.84;55.11
47763;BME280;33526;42.690;23.322;2022-08-21T13:44:18;94302.09;;;26.28;55.30
47763;BME280;33526;42.690;23.322;2022-08-21T13:46:45;94316.72;;;26.50;56.20
47763;BME280;33526;42.690;23.322;2022-08-21T13:49:15;94270.44;;;26.26;54.73
47763;BME280;33526;42.690;23.322;2022-08-21T13:51:43;94247.75;;;26.11;54.64
47763;BME280;33526;42.690;23.322;2022-08-21T13:56:49;94296.59;;;26.40;54.70
47763;BME280;33526;42.690;23.322;2022-08-21T13:59:28;94280.09;;;26.04;55.04
47763;BME280;33526;42.690;23.322;2022-08-21T14:02:00;94267.47;;;25.89;55.22
47763;BME280;33526;42.690;23.322;2022-08-21T14:04:36;94236.97;;;25.84;55.63
47763;BME280;33526;42.690;23.322;2022-08-21T14:07:15;94275.84;;;25.87;55.89